Weather History for Idabel, OK

Change the Weather History Date:

Saturday, December 29, 2012

  Actual Average (KDEQ) Record (KDEQ)
Temperature  
Mean Temperature 32 °F 42 °F  
Max Temperature 42 °F 54 °F 74 °F (1984)
Min Temperature 21 °F 30 °F 9 °F (1983)
Degree Days  
Heating Degree Days 32 23  
Month to date heating degree days 636  
Since 1 July heating degree days 1162  
Cooling Degree Days 0 0  
Month to date cooling degree days 0  
Year to date cooling degree days 1941  
Moisture  
Dew Point 19 °F    
Average Humidity 62    
Maximum Humidity 86    
Minimum Humidity 36    
Precipitation  
Precipitation 0.00 in 0.17 in 1.38 in (1969)
Month to date precipitation 4.01  
Year to date precipitation 48.64  
Snow  
Snow 0.00 in - - ()
Month to date snowfall  
Since 1 July snowfall  
Snow Depth -    
Sea Level Pressure  
Sea Level Pressure 30.33 in    
Wind  
Wind Speed 6 mph (WNW)    
Max Wind Speed 13 mph    
Max Gust Speed 18 mph    
Visibility 10 miles    
Events      
T = Trace of Precipitation, MM = Missing Value Source: NWS Daily Summary

Daily Weather History Graph

Daily Weather History Graph

Search for Another Location

Airport:

Trip Planner

Search our weather history database for the weather conditions in past years. The results will help you decide how hot, cold, wet, or windy it might be!

Date:

Astronomy

Dec. 29, 2012 Rise Set
Actual Time 7:24 AM CST 5:19 PM CST
Civil Twilight 6:56 AM CST 5:47 PM CST
Nautical Twilight 6:25 AM CST 6:18 PM CST
Astronomical Twilight 5:54 AM CST 6:48 PM CST
Moon 6:48 PM CST (12/29) 8:02 AM CST (12/29)
Length of Visible Light 10h 50m
Length of Day
9h 55m
Full, 98% of the Moon is Illuminated
Dec 29
Full
Jan 4
Last Quarter
Jan 11
New
Jan 18
First Quarter
Jan 26
Full

Hourly Weather History & Observations

Time (CST) Temp. Windchill Dew Point Humidity Pressure Visibility Wind Dir Wind Speed Gust Speed Precip Events Conditions
12:15 AM 30.2 °F 23.4 °F 24.8 °F 80% 30.14 in 10.0 mi WNW 6.9 mph - N/A   Clear
12:35 AM 30.2 °F 23.4 °F 23.0 °F 75% 30.16 in 10.0 mi West 6.9 mph - N/A   Clear
12:55 AM 28.4 °F 22.2 °F 23.0 °F 80% 30.16 in 10.0 mi West 5.8 mph - N/A   Clear
1:15 AM 28.4 °F 21.2 °F 23.0 °F 80% 30.17 in 10.0 mi West 6.9 mph - N/A   Clear
1:35 AM 28.4 °F 21.2 °F 21.2 °F 74% 30.17 in 10.0 mi WNW 6.9 mph - N/A   Clear
1:55 AM 28.4 °F 21.2 °F 21.2 °F 74% 30.17 in 10.0 mi WNW 6.9 mph - N/A   Clear
2:15 AM 28.4 °F 21.2 °F 21.2 °F 74% 30.18 in 10.0 mi WNW 6.9 mph - N/A   Clear
2:35 AM 28.4 °F 22.2 °F 19.4 °F 69% 30.19 in 10.0 mi WNW 5.8 mph - N/A   Clear
2:55 AM 26.6 °F 20.0 °F 19.4 °F 74% 30.20 in 10.0 mi WNW 5.8 mph - N/A   Clear
3:15 AM 26.6 °F 19.1 °F 19.4 °F 74% 30.22 in 10.0 mi West 6.9 mph - N/A   Clear
3:35 AM 26.6 °F 20.0 °F 19.4 °F 74% 30.22 in 10.0 mi WNW 5.8 mph - N/A   Clear
3:55 AM 26.6 °F 20.0 °F 17.6 °F 69% 30.22 in 10.0 mi WNW 5.8 mph - N/A   Clear
4:15 AM 26.6 °F 19.1 °F 17.6 °F 69% 30.22 in 10.0 mi WNW 6.9 mph - N/A   Clear
4:35 AM 26.6 °F 20.0 °F 17.6 °F 69% 30.22 in 10.0 mi West 5.8 mph - N/A   Clear
4:55 AM 24.8 °F 16.9 °F 17.6 °F 74% 30.23 in 10.0 mi West 6.9 mph - N/A   Clear
5:15 AM 24.8 °F 16.9 °F 17.6 °F 74% 30.24 in 10.0 mi West 6.9 mph - N/A   Clear
5:35 AM 24.8 °F 16.9 °F 17.6 °F 74% 30.25 in 10.0 mi West 6.9 mph - N/A   Clear
5:55 AM 24.8 °F 16.9 °F 17.6 °F 74% 30.26 in 10.0 mi WNW 6.9 mph - N/A   Clear
6:15 AM 24.8 °F 16.9 °F 17.6 °F 74% 30.28 in 10.0 mi West 6.9 mph - N/A   Clear
6:35 AM 24.8 °F 16.9 °F 17.6 °F 74% 30.30 in 10.0 mi West 6.9 mph - N/A   Clear
6:55 AM 24.8 °F 16.1 °F 17.6 °F 74% 30.31 in 10.0 mi West 8.1 mph - N/A   Clear
7:15 AM 24.8 °F 15.3 °F 17.6 °F 74% 30.32 in 10.0 mi WNW 9.2 mph - N/A   Clear
7:35 AM 23.0 °F 15.8 °F 17.6 °F 80% 30.32 in 10.0 mi WNW 5.8 mph - N/A   Clear
7:55 AM 24.8 °F 17.9 °F 17.6 °F 74% 30.32 in 10.0 mi WNW 5.8 mph - N/A   Clear
8:15 AM 26.6 °F 18.2 °F 17.6 °F 69% 30.33 in 10.0 mi WNW 8.1 mph - N/A   Clear
8:35 AM 28.4 °F 21.2 °F 17.6 °F 64% 30.34 in 10.0 mi WNW 6.9 mph - N/A   Clear
8:55 AM 28.4 °F 19.7 °F 17.6 °F 64% 30.35 in 10.0 mi WNW 9.2 mph - N/A   Clear
9:15 AM 30.2 °F 20.8 °F 15.8 °F 55% 30.35 in 10.0 mi NW 11.5 mph - N/A   Clear
9:35 AM 30.2 °F 22.6 °F 17.6 °F 60% 30.36 in 10.0 mi WNW 8.1 mph - N/A   Clear
9:55 AM 32.0 °F 23.6 °F 17.6 °F 55% 30.37 in 10.0 mi WNW 10.4 mph - N/A   Clear
10:15 AM 32.0 °F 23.6 °F 17.6 °F 55% 30.38 in 10.0 mi NW 10.4 mph - N/A   Clear
10:35 AM 32.0 °F 23.0 °F 17.6 °F 55% 30.39 in 10.0 mi NNW 11.5 mph 16.1 mph N/A   Clear
10:55 AM 32.0 °F 23.6 °F 17.6 °F 55% 30.39 in 10.0 mi NW 10.4 mph 18.4 mph N/A   Clear
11:15 AM 33.8 °F 24.8 °F 17.6 °F 52% 30.40 in 10.0 mi NW 12.7 mph 17.3 mph N/A   Clear
11:35 AM 35.6 °F 28.0 °F 17.6 °F 48% 30.40 in 10.0 mi WNW 10.4 mph - N/A   Clear
11:55 AM 35.6 °F 27.5 °F 19.4 °F 52% 30.39 in 10.0 mi WNW 11.5 mph 16.1 mph N/A   Clear
12:15 PM 37.4 °F 30.3 °F 17.6 °F 45% 30.38 in 10.0 mi NW 10.4 mph - N/A   Clear
12:35 PM 37.4 °F 30.3 °F 17.6 °F 45% 30.37 in 10.0 mi NNW 10.4 mph - N/A   Clear
12:55 PM 39.2 °F 33.0 °F 17.6 °F 42% 30.37 in 10.0 mi NW 9.2 mph - N/A   Clear
1:15 PM 39.2 °F 33.0 °F 19.4 °F 45% 30.37 in 10.0 mi NW 9.2 mph 17.3 mph N/A   Clear
1:35 PM 41.0 °F 35.2 °F 19.4 °F 42% 30.36 in 10.0 mi NNW 9.2 mph - N/A   Clear
1:55 PM 41.0 °F 34.7 °F 19.4 °F 42% 30.35 in 10.0 mi NW 10.4 mph - N/A   Clear
2:35 PM 42.8 °F 39.3 °F 19.4 °F 39% 30.36 in 10.0 mi NNW 5.8 mph - N/A   Clear
2:55 PM 42.8 °F 38.6 °F 19.4 °F 39% 30.36 in 10.0 mi NW 6.9 mph - N/A   Clear
3:15 PM 42.8 °F 37.5 °F 17.6 °F 36% 30.36 in 10.0 mi NNW 9.2 mph - N/A   Clear
3:35 PM 42.8 °F 37.0 °F 19.4 °F 39% 30.37 in 10.0 mi North 10.4 mph - N/A   Clear
3:55 PM 42.8 °F 38.6 °F 19.4 °F 39% 30.38 in 10.0 mi NW 6.9 mph - N/A   Clear
4:15 PM 42.8 °F 39.3 °F 17.6 °F 36% 30.37 in 10.0 mi North 5.8 mph - N/A   Clear
4:35 PM 42.8 °F 39.3 °F 17.6 °F 36% 30.38 in 10.0 mi NNW 5.8 mph - N/A   Clear
4:55 PM 42.8 °F 40.1 °F 17.6 °F 36% 30.38 in 10.0 mi NNW 4.6 mph - N/A   Clear
5:15 PM 41.0 °F 39.0 °F 17.6 °F 39% 30.39 in 10.0 mi NW 3.5 mph - N/A   Clear
5:35 PM 37.4 °F 33.8 °F 17.6 °F 45% 30.39 in 10.0 mi NW 4.6 mph - N/A   Clear
5:55 PM 35.6 °F 32.8 °F 17.6 °F 48% 30.40 in 10.0 mi NW 3.5 mph - N/A   Clear
6:15 PM 33.8 °F - 17.6 °F 52% 30.40 in 10.0 mi Calm Calm - N/A   Clear
6:35 PM 32.0 °F 28.7 °F 19.4 °F 60% 30.40 in 10.0 mi SW 3.5 mph - N/A   Clear
7:15 PM 32.0 °F - 17.6 °F 55% 30.42 in 10.0 mi Calm Calm - N/A   Clear
7:35 PM 32.0 °F - 17.6 °F 55% 30.42 in 10.0 mi Calm Calm - N/A   Clear
7:55 PM 30.2 °F - 19.4 °F 64% 30.42 in 10.0 mi Calm Calm - N/A   Clear
8:15 PM 28.4 °F - 19.4 °F 69% 30.42 in 10.0 mi Calm Calm - N/A   Clear
8:35 PM 28.4 °F - 19.4 °F 69% 30.42 in 10.0 mi Calm Calm - N/A   Clear
8:55 PM 28.4 °F - 19.4 °F 69% 30.42 in 10.0 mi Calm Calm - N/A   Clear
9:15 PM 28.4 °F - 19.4 °F 69% 30.43 in 10.0 mi Calm Calm - N/A   Clear
9:55 PM 26.6 °F - 19.4 °F 74% 30.43 in 10.0 mi Calm Calm - N/A   Clear
10:15 PM 28.4 °F - 19.4 °F 69% 30.43 in 10.0 mi Calm Calm - N/A   Clear
10:57 PM 23.0 °F - 19.4 °F 86% 30.44 in 10.0 mi Calm Calm - N/A   Clear
11:17 PM 24.8 °F - 17.6 °F 74% 30.43 in 10.0 mi Calm Calm - N/A   Clear
11:37 PM 24.8 °F - 17.6 °F 74% 30.45 in 10.0 mi Calm Calm - N/A   Clear
11:57 PM 21.2 °F - 17.6 °F 86% 30.46 in 10.0 mi Calm Calm - N/A   Clear